Data for 07/27/2008

Time Sea-Level Adjusted Pressure Absolute Pressure Temperature Relative Humidity Dew Point   
(mb) (inHg) (mb) (inHg) (C) (F) (%) (C) (F)
00:05 1014 29.94 844 24.92 21.2 70.1 33 4.3 39.7
00:10 1014 29.94 844 24.92 21.3 70.3 32 3.9 39
00:15 1014 29.94 844 24.92 21.7 71 29 3 37.3
00:20 1015 29.97 844 24.92 22.5 72.5 28 3.3 38
00:25 1015 29.97 844 24.92 22.8 73 27 3.3 37.9
00:30 1015 29.97 844 24.92 22.8 73.1 28 3.4 38.1
00:35 1015 29.97 844 24.92 22.8 73.1 27 3.1 37.6
00:40 1015 29.97 844 24.92 22.8 73 28 3.5 38.4
00:45 1015 29.97 844 24.92 22.5 72.6 28 3.3 38
00:50 1015 29.97 844 24.92 22.5 72.4 28 3.3 37.9
00:55 1015 29.97 844 24.92 22.4 72.4 28 3.1 37.6
01:00 1015 29.97 844 24.92 22.5 72.4 28 3.3 38
01:05 1015 29.97 844 24.92 22.3 72.2 28 3.3 37.9
01:10 1015 29.97 844 24.92 22.3 72.2 28 3.3 37.9
01:15 1015 29.97 844 24.92 22.2 71.9 29 3.5 38.4
01:20 1015 29.97 844 24.92 22 71.7 28 3 37.5
01:25 1015 29.97 844 24.92 22.1 71.8 29 3.3 38
01:30 1015 29.97 845 24.95 21.9 71.4 29 3.3 37.9
01:35 1015 29.97 845 24.95 21.8 71.3 29 3.3 38
01:40 1015 29.97 845 24.95 21.7 71 30 3.3 38
01:45 1016 30 845 24.95 21.7 71 29 3.2 37.8
01:50 1016 30 845 24.95 21.8 71.3 29 3.2 37.8
01:55 1016 30 845 24.95 21.9 71.3 29 3.4 38.2
02:00 1016 30 845 24.95 21.7 71.1 30 3.5 38.2
02:05 1016 30 845 24.95 21.5 70.7 30 3.5 38.4
02:10 1016 30 845 24.95 21.3 70.4 31 3.5 38.3
02:15 1016 30 845 24.95 21.1 70.1 30 3.3 37.9
02:20 1016 30 845 24.95 21.2 70.1 30 3.3 37.9
02:25 1016 30 845 24.95 21.2 70.1 30 3.2 37.8
02:30 1016 30 845 24.95 21.1 69.9 31 3.3 38
02:35 1016 30 845 24.95 20.8 69.4 34 4.5 40
02:40 1016 30 845 24.95 20.2 68.4 38 5.6 42.2
02:45 1016 30 845 24.95 19.5 67.2 39 5.4 41.8
02:50 1016 30 845 24.95 18.8 65.8 39 4.7 40.5
02:55 1016 30 845 24.95 18.7 65.6 37 3.8 38.8
03:00 1016 30 845 24.95 19.1 66.4 35 3.3 38
03:05 1016 30 845 24.95 19.8 67.6 34 3.5 38.3
03:10 1016 30 845 24.95 19.6 67.2 36 4.3 39.8
03:15 1016 30 846 24.98 19.3 66.8 37 4.3 39.8
03:20 1016 30 846 24.98 19 66.2 41 5.7 42.2
03:25 1016 30 846 24.98 18.1 64.6 46 6.4 43.5
03:30 1016 30 846 24.98 17.5 63.4 47 6.2 43.2
03:35 1016 30 846 24.98 17.5 63.4 45 5.5 41.9
03:40 1016 30 846 24.98 17.6 63.7 41 4.4 39.8
03:45 1016 30 845 24.95 17.8 64 40 4.3 39.7
03:50 1016 30 845 24.95 17.9 64.3 41 4.5 40.2
03:55 1016 30 845 24.95 17.7 63.8 42 4.9 40.8
04:00 1016 30 846 24.98 17.5 63.4 41 4.3 39.7
04:05 1016 30 846 24.98 17.5 63.4 41 4.3 39.8
04:10 1016 30 846 24.98 17.5 63.5 42 4.6 40.3
04:15 1016 30 846 24.98 17.2 62.9 47 5.9 42.6
04:20 1016 30 846 24.98 16.6 61.9 48 5.6 42
04:25 1017 30.03 846 24.98 16.3 61.3 48 5.3 41.5
04:30 1017 30.03 846 24.98 15.8 60.4 50 5.5 42
04:35 1017 30.03 846 24.98 15.3 59.5 54 6 42.7
04:40 1017 30.03 846 24.98 15.1 59.2 52 5.3 41.5
04:45 1017 30.03 846 24.98 15 59 57 6.6 43.9
04:50 1017 30.03 846 24.98 14.9 58.8 52 5.2 41.4
04:55 1017 30.03 846 24.98 14.7 58.4 52 5.1 41.1
05:00 1017 30.03 846 24.98 14.8 58.6 50 4.7 40.4
05:05 1017 30.03 846 24.98 15 58.9 51 4.9 40.8
05:10 1017 30.03 846 24.98 15 58.9 50 4.8 40.7
05:15 1017 30.03 846 24.98 15 58.9 51 4.9 40.8
05:20 1017 30.03 846 24.98 14.9 58.8 50 4.6 40.4
05:25 1017 30.03 846 24.98 14.9 58.9 50 4.8 40.6
05:30 1017 30.03 846 24.98 15 59 49 4.4 39.9
05:35 1017 30.03 846 24.98 15.2 59.4 48 4.5 40.1
05:40 1017 30.03 846 24.98 15.3 59.6 47 4.2 39.5
05:45 1017 30.03 846 24.98 15.6 60.2 46 4.3 39.7
05:50 1017 30.03 846 24.98 15.7 60.3 46 4.1 39.5
05:55 1017 30.03 846 24.98 15.8 60.4 46 4.2 39.5
06:00 1017 30.03 846 24.98 15.7 60.3 46 4.2 39.6
06:05 1017 30.03 846 24.98 15.6 60.1 47 4.3 39.7
06:10 1017 30.03 846 24.98 15.4 59.8 47 4.3 39.7
06:15 1017 30.03 846 24.98 15.6 60.1 44 3.5 38.3
06:20 1017 30.03 846 24.98 16.1 60.9 44 4 39.3
06:25 1017 30.03 846 24.98 15.8 60.4 47 4.6 40.2
06:30 1017 30.03 846 24.98 15.3 59.5 49 4.7 40.5
06:35 1017 30.03 846 24.98 14.9 58.9 50 4.6 40.2
06:40 1017 30.03 846 24.98 14.8 58.6 51 4.7 40.5
06:45 1017 30.03 846 24.98 14.7 58.5 51 4.7 40.5
06:50 1017 30.03 846 24.98 14.6 58.3 50 4.5 40.1
06:55 1017 30.03 846 24.98 15 59 49 4.5 40.1
07:00 1017 30.03 846 24.98 15.1 59.2 48 4.3 39.8
07:05 1017 30.03 846 24.98 15.2 59.4 48 4.3 39.8
07:10 1017 30.03 846 24.98 15.2 59.4 49 4.8 40.6
07:15 1017 30.03 846 24.98 15.4 59.7 48 4.7 40.4
07:20 1017 30.03 846 24.98 15.6 60 49 5 41.1
07:25 1017 30.03 846 24.98 15.8 60.5 49 5.1 41.3
07:30 1017 30.03 846 24.98 15.9 60.7 50 5.5 41.8
07:35 1017 30.03 846 24.98 15.8 60.5 50 5.4 41.7
07:40 1017 30.03 846 24.98 15.9 60.6 50 5.5 42
07:45 1017 30.03 846 24.98 16 60.7 50 5.6 42.1
07:50 1017 30.03 846 24.98 16.2 61.1 49 5.5 42
07:55 1017 30.03 846 24.98 16.6 61.8 48 5.7 42.3
08:00 1017 30.03 846 24.98 17 62.7 47 5.7 42.3
08:05 1017 30.03 846 24.98 17.4 63.4 47 6.2 43.2
08:10 1017 30.03 846 24.98 17.9 64.1 45 5.9 42.7
08:15 1017 30.03 846 24.98 18 64.3 45 6.1 43
08:20 1017 30.03 846 24.98 18.3 65 45 6.4 43.5
08:25 1017 30.03 846 24.98 18.5 65.3 45 6.4 43.5
08:30 1017 30.03 846 24.98 18.9 66.1 45 6.9 44.4
08:35 1017 30.03 846 24.98 19.1 66.4 46 7.2 45
08:40 1017 30.03 846 24.98 19.4 67 45 7.2 44.9
08:45 1017 30.03 847 25.01 19.8 67.6 40 6 42.8
08:50 1017 30.03 847 25.01 20.3 68.5 40 6.3 43.4
08:55 1017 30.03 847 25.01 21 69.9 39 6.7 44.1
09:00 1017 30.03 847 25.01 21.3 70.3 40 7.2 44.9
09:05 1017 30.03 847 25.01 21.7 71 39 7.3 45.2
09:10 1017 30.03 847 25.01 22.2 71.9 36 6.4 43.5
09:15 1017 30.03 847 25.01 22.9 73.3 35 6.8 44.2
09:20 1017 30.03 847 25.01 22.7 72.8 35 6.8 44.3
09:25 1017 30.03 847 25.01 22.9 73.1 33 5.7 42.3
09:30 1017 30.03 847 25.01 23.1 73.5 33 5.9 42.7
09:35 1017 30.03 847 25.01 23.3 74 31 5.6 42
09:40 1017 30.03 847 25.01 23.9 75 31 6.1 42.9
09:45 1017 30.03 847 25.01 24.2 75.6 32 6.8 44.2
09:50 1017 30.03 847 25.01 24.2 75.5 30 5.9 42.6
09:55 1017 30.03 847 25.01 24 75.2 33 6.8 44.2
10:00 1017 30.03 847 25.01 23.9 75 31 6.2 43.1
10:05 1017 30.03 847 25.01 24.2 75.6 30 5.9 42.6
10:10 1017 30.03 847 25.01 24.8 76.7 28 5.4 41.7
10:15 1017 30.03 847 25.01 25.1 77.1 26 4.7 40.5
10:20 1017 30.03 847 25.01 25.1 77.2 27 5 41
10:25 1017 30.03 846 24.98 25.4 77.8 26 4.5 40.2
10:30 1017 30.03 846 24.98 25.6 78.2 26 5.1 41.1
10:35 1017 30.03 846 24.98 26 78.9 25 5 41
10:40 1017 30.03 846 24.98 25.8 78.4 26 5.2 41.4
10:45 1017 30.03 846 24.98 25.4 77.8 26 4.9 40.8
10:50 1017 30.03 846 24.98 25.2 77.4 27 5 41
10:55 1017 30.03 846 24.98 25.5 77.9 26 4.9 40.7
11:00 1017 30.03 846 24.98 25.8 78.4 25 4.8 40.6
11:05 1017 30.03 846 24.98 25.9 78.6 26 5 40.9
11:10 1017 30.03 846 24.98 26 78.8 25 4.9 40.8
11:15 1017 30.03 846 24.98 26.6 79.8 24 4.9 40.8
11:20 1017 30.03 846 24.98 26.9 80.3 27 6.7 44
11:25 1017 30.03 846 24.98 26.3 79.4 27 6.1 43
11:30 1017 30.03 846 24.98 25.4 77.8 27 5.3 41.6
11:35 1017 30.03 846 24.98 26.2 79.2 26 5.6 42.1
11:40 1017 30.03 846 24.98 26.8 80.2 26 6.1 42.9
11:45 1017 30.03 846 24.98 26.3 79.4 27 6.2 43.2
11:50 1017 30.03 846 24.98 25.4 77.6 27 5.2 41.4
11:55 1017 30.03 846 24.98 26.3 79.4 27 6 42.9
12:00 1017 30.03 846 24.98 26.7 80.1 27 6.2 43.1
12:05 1017 30.03 846 24.98 25.7 78.2 29 6.5 43.7
12:10 1017 30.03 846 24.98 26.1 79 27 6 42.9
12:15 1017 30.03 846 24.98 26.6 79.9 26 5.8 42.4
12:20 1017 30.03 846 24.98 26.2 79.1 26 5.3 41.6
12:25 1017 30.03 846 24.98 26.5 79.7 27 6.1 43
12:30 1016 30 846 24.98 26.4 79.5 27 6.4 43.5
12:35 1016 30 846 24.98 26.9 80.4 25 5.2 41.4
12:40 1016 30 846 24.98 27 80.5 26 6.2 43.2
12:45 1016 30 845 24.95 27.3 81.1 23 4.7 40.5
12:50 1016 30 845 24.95 27 80.6 24 5.2 41.4
12:55 1016 30 845 24.95 27.3 81.2 23 4.7 40.4
13:00 1016 30 845 24.95 27.5 81.4 23 4.9 40.7
13:05 1016 30 845 24.95 28.2 82.7 25 6.5 43.7
13:10 1016 30 845 24.95 28 82.5 23 5.3 41.5
13:15 1016 30 845 24.95 28.2 82.8 24 5.8 42.5
13:20 1016 30 845 24.95 28.4 83.2 23 5.3 41.6
13:25 1016 30 845 24.95 28.5 83.3 22 5.1 41.1
13:30 1016 30 845 24.95 28.9 84 20 4.3 39.7
13:35 1016 30 845 24.95 28.8 83.8 22 5 40.9
13:40 1016 30 845 24.95 29.2 84.5 22 5.5 41.9
13:45 1016 30 845 24.95 29.1 84.4 20 4.2 39.6
13:50 1016 30 845 24.95 29.5 85 20 4.5 40.2
13:55 1016 30 845 24.95 29.8 85.6 19 4.3 39.7
14:00 1015 29.97 845 24.95 29.9 85.9 20 4.8 40.6
14:05 1015 29.97 845 24.95 30.2 86.3 19 4.4 39.8
14:10 1015 29.97 845 24.95 29.9 85.8 18 3.3 38
14:15 1015 29.97 844 24.92 29.8 85.6 20 5 41
14:20 1015 29.97 844 24.92 29.3 84.7 20 4.2 39.6
14:25 1015 29.97 844 24.92 29 84.2 19 3 37.4
14:30 1015 29.97 844 24.92 29.5 85 19 3.8 38.8
14:35 1015 29.97 844 24.92 28.7 83.6 21 4.2 39.6
14:40 1015 29.97 844 24.92 29.9 85.8 19 3.9 38.9
14:45 1015 29.97 844 24.92 30.2 86.3 18 3.2 37.8
14:50 1015 29.97 844 24.92 29.9 85.8 17 2.8 37.1
14:55 1015 29.97 844 24.92 29.7 85.4 18 3.1 37.6
15:00 1015 29.97 844 24.92 30 86 18 3.4 38
15:05 1015 29.97 844 24.92 30.2 86.3 15 1.3 34.4
15:10 1015 29.97 844 24.92 29.6 85.3 18 3.4 38.1
15:15 1015 29.97 844 24.92 29.9 85.8 16 1.7 35
15:20 1015 29.97 844 24.92 30.4 86.7 17 2.7 36.9
15:25 1015 29.97 844 24.92 30.7 87.3 16 2.4 36.3
15:30 1014 29.94 844 24.92 31.1 88 17 3.8 38.8
15:35 1014 29.94 844 24.92 30.8 87.4 17 3.3 37.9
15:40 1014 29.94 844 24.92 31.1 88.1 15 2 35.6
15:45 1014 29.94 844 24.92 31.4 88.6 15 2.2 35.9
15:50 1014 29.94 843 24.89 31.2 88.2 16 2.4 36.4
15:55 1014 29.94 843 24.89 31.7 89 14 1.7 35.1
16:00 1014 29.94 843 24.89 32.1 89.8 14 1.9 35.4
16:05 1014 29.94 843 24.89 31.6 88.8 15 1.8 35.2
16:10 1014 29.94 843 24.89 31.3 88.3 15 1.5 34.8
16:15 1014 29.94 843 24.89 31.4 88.6 15 1.6 34.9
16:20 1014 29.94 843 24.89 31.6 88.8 15 1.7 35.1
16:25 1014 29.94 843 24.89 31.7 89 14 1.4 34.6
16:30 1014 29.94 843 24.89 31.7 89.1 14 1 33.8
16:35 1014 29.94 843 24.89 31.4 88.5 14 0.9 33.7
16:40 1014 29.94 843 24.89 31.8 89.2 14 1.8 35.2
16:45 1014 29.94 843 24.89 32.1 89.8 14 1.9 35.4
16:50 1014 29.94 843 24.89 32.2 89.9 15 2.5 36.4
16:55 1014 29.94 843 24.89 31.6 88.8 15 2 35.5
17:00 1014 29.94 843 24.89 30.7 87.2 15 1.5 34.6
17:05 1014 29.94 843 24.89 30.9 87.6 15 1.5 34.7
17:10 1014 29.94 843 24.89 31.2 88.1 15 1.5 34.8
17:15 1014 29.94 843 24.89 31 87.8 15 1.3 34.4
17:20 1013 29.91 843 24.89 31.2 88.2 15 1.5 34.6
17:25 1013 29.91 843 24.89 31 87.8 14 0.7 33.3
17:30 1013 29.91 843 24.89 31.4 88.5 15 1.7 35.1
17:35 1013 29.91 843 24.89 32.3 90.2 14 1.7 35
17:40 1013 29.91 843 24.89 32.7 90.9 13 0.9 33.5
17:45 1013 29.91 842 24.86 32.6 90.7 13 1.4 34.5
17:50 1013 29.91 842 24.86 32.2 90 14 1.3 34.3
17:55 1013 29.91 842 24.86 32 89.6 14 1.7 35.1
18:00 1013 29.91 842 24.86 32.1 89.8 14 1.9 35.4
18:05 1013 29.91 842 24.86 31.6 88.9 14 1.3 34.4
18:10 1013 29.91 842 24.86 31.3 88.4 15 1.7 35.1
18:15 1013 29.91 842 24.86 31.3 88.3 14 1.3 34.4
18:20 1013 29.91 842 24.86 30.8 87.4 15 1.6 34.8
18:25 1013 29.91 842 24.86 30.8 87.5 15 1.7 35.1
18:30 1013 29.91 842 24.86 31 87.7 16 2.5 36.5
18:35 1013 29.91 842 24.86 30.6 87.1 14 0.8 33.5
18:40 1013 29.91 842 24.86 30.4 86.7 15 1.1 33.9
18:45 1013 29.91 842 24.86 30.5 86.8 15 1.4 34.5
18:50 1013 29.91 842 24.86 29.7 85.5 18 3.5 38.3
18:55 1013 29.91 842 24.86 29.6 85.2 18 2.9 37.2
19:00 1013 29.91 842 24.86 29.6 85.3 16 1.4 34.6
19:05 1013 29.91 842 24.86 29.6 85.3 17 2.4 36.4
19:10 1013 29.91 842 24.86 29.5 85.2 18 3.2 37.7
19:15 1013 29.91 842 24.86 29.3 84.7 17 2.3 36.2
19:20 1013 29.91 842 24.86 29 84.3 20 3.8 38.8
19:25 1013 29.91 842 24.86 29 84.3 23 5.9 42.6
19:30 1012 29.88 842 24.86 29 84.1 19 3.3 37.9
19:35 1012 29.88 842 24.86 28.9 84 20 4 39.2
19:40 1012 29.88 842 24.86 28.8 83.8 22 5.4 41.8
19:45 1012 29.88 842 24.86 28.6 83.5 23 5.9 42.6
19:50 1012 29.88 842 24.86 28.4 83 23 5.3 41.5
19:55 1012 29.88 842 24.86 28.2 82.8 24 5.8 42.5
20:00 1012 29.88 842 24.86 28.1 82.6 23 5.5 41.9
20:05 1012 29.88 842 24.86 27.9 82.3 23 5.2 41.4
20:10 1012 29.88 842 24.86 27.8 82.1 23 5.2 41.3
20:15 1012 29.88 842 24.86 27.7 81.9 23 5.2 41.4
20:20 1012 29.88 842 24.86 27.5 81.5 25 6 42.8
20:25 1012 29.88 842 24.86 27.2 81 30 8.2 46.8
20:30 1012 29.88 842 24.86 26.6 80 36 10.5 50.8
20:35 1012 29.88 842 24.86 25.9 78.7 35 9.5 49.1
20:40 1012 29.88 842 24.86 25.4 77.8 40 10.9 51.7
20:45 1012 29.88 842 24.86 25.1 77.1 34 8.5 47.2
20:50 1012 29.88 842 24.86 24.6 76.3 36 8.8 47.9
20:55 1012 29.88 842 24.86 24.1 75.5 36 8.5 47.3
21:00 1013 29.91 842 24.86 23.9 74.9 36 8 46.4
21:05 1013 29.91 842 24.86 23.7 74.7 34 7.3 45.1
21:10 1013 29.91 842 24.86 23.6 74.5 42 10.1 50.1
21:15 1013 29.91 842 24.86 23.3 73.9 43 10 50.1
21:20 1013 29.91 842 24.86 22.8 73 43 9.8 49.6
21:25 1013 29.91 842 24.86 22.9 73.1 41 9.2 48.6
21:30 1013 29.91 842 24.86 22.9 73.2 35 6.8 44.3
21:35 1013 29.91 842 24.86 23.1 73.6 32 5.6 42
21:40 1013 29.91 842 24.86 23.2 73.7 33 6.4 43.5
21:45 1013 29.91 842 24.86 23 73.3 36 7.2 44.9
21:50 1013 29.91 842 24.86 22.9 73.2 33 6.1 43.1
21:55 1013 29.91 842 24.86 22.8 73 36 7.2 45
22:00 1013 29.91 842 24.86 22.3 72.1 39 7.7 45.8
22:05 1013 29.91 843 24.89 21.8 71.3 41 8.1 46.5
22:10 1014 29.94 843 24.89 21.3 70.3 44 8.6 47.5
22:15 1014 29.94 843 24.89 21 69.8 42 7.8 46
22:20 1014 29.94 843 24.89 21.3 70.3 44 8.6 47.5
22:25 1014 29.94 843 24.89 21.4 70.6 44 8.8 47.9
22:30 1014 29.94 843 24.89 21.4 70.5 44 8.7 47.6
22:35 1014 29.94 843 24.89 21.3 70.3 41 7.5 45.5
22:40 1014 29.94 843 24.89 21.4 70.6 39 6.9 44.4
22:45 1014 29.94 843 24.89 21.6 70.9 36 6 42.8
22:50 1014 29.94 843 24.89 21.6 70.9 36 6.1 43.1
22:55 1014 29.94 843 24.89 21.3 70.3 36 5.6 42
23:00 1014 29.94 843 24.89 21.4 70.5 34 5 41
23:05 1014 29.94 843 24.89 21.8 71.3 33 4.9 40.8
23:10 1014 29.94 843 24.89 22.1 71.7 32 4.8 40.7
23:15 1014 29.94 843 24.89 21.9 71.4 33 5 41
23:20 1014 29.94 844 24.92 21.5 70.6 33 4.8 40.7
23:25 1014 29.94 844 24.92 21.2 70.2 33 4.4 39.9
23:30 1014 29.94 844 24.92 21.2 70.2 32 4.3 39.7
23:35 1014 29.94 844 24.92 21.1 70 33 4.5 40.1
23:40 1015 29.97 844 24.92 21.2 70.1 32 3.9 39.1
23:45 1015 29.97 844 24.92 21.2 70.1 33 4.2 39.6
23:50 1015 29.97 844 24.92 20.9 69.5 33 4.1 39.4
23:55 1015 29.97 844 24.92 20.6 69.1 33 4.2 39.5
24:00 1015 29.97 844 24.92 20.5 68.8 34 4.1 39.3